Time;durP1;ratioP1;P1;durP2;ratioP2;P2;SDS_P1;SDS_P2;PMS_P1;PMS_P2;Temp;Humidity;BMP_temperature;BMP_pressure;BME280_temperature;BME280_humidity;BME280_pressure;Samples;Min_cycle;Max_cycle;Signal;HPM_P1;HPM_P2
2021/01/26 00:00:18;;;;;;;15.80;10.10;;;1.10;82.50;;;-0.92;82.63;95483.06;5063894;28;20029;-72
2021/01/26 00:02:44;;;;;;;15.63;10.60;;;1.10;82.60;;;-0.90;81.85;95482.16;5038981;28;20496;-70
2021/01/26 00:05:11;;;;;;;16.02;10.43;;;1.10;82.90;;;-0.91;81.89;95496.81;5065477;28;20032;-71
2021/01/26 00:07:37;;;;;;;16.20;10.27;;;1.00;83.10;;;-0.91;82.11;95489.06;5061076;28;20113;-69
2021/01/26 00:10:05;;;;;;;19.40;12.05;;;1.00;82.80;;;-0.92;81.97;95490.81;5048945;28;20149;-71
2021/01/26 00:12:30;;;;;;;18.30;11.48;;;1.00;83.20;;;-0.92;82.12;95488.25;5035024;28;20164;-70
2021/01/26 00:14:56;;;;;;;17.70;11.18;;;1.00;83.00;;;-0.91;82.02;95491.63;5053107;28;20033;-71
2021/01/26 00:17:22;;;;;;;18.50;11.68;;;1.10;82.90;;;-0.92;82.05;95490.81;5066701;28;20032;-70
2021/01/26 00:19:48;;;;;;;17.48;11.82;;;1.10;82.90;;;-0.93;81.72;95499.50;5068154;28;20033;-70
2021/01/26 00:22:13;;;;;;;15.88;10.98;;;1.00;83.00;;;-0.93;81.91;95494.34;5064198;28;20555;-72
2021/01/26 00:24:39;;;;;;;16.58;11.18;;;1.10;83.00;;;-0.93;82.23;95496.13;5069140;28;20033;-71
2021/01/26 00:27:05;;;;;;;17.50;11.48;;;1.10;82.90;;;-0.94;82.24;95491.91;5064197;28;20033;-71
2021/01/26 00:29:31;;;;;;;17.55;11.07;;;1.10;82.70;;;-0.94;81.95;95497.06;5066714;28;20033;-71
2021/01/26 00:31:56;;;;;;;18.50;11.30;;;1.10;83.10;;;-0.94;82.17;95502.22;5057957;28;20041;-71
2021/01/26 00:34:22;;;;;;;18.15;11.48;;;1.10;83.00;;;-0.94;82.48;95503.06;5047538;28;20029;-71
2021/01/26 00:36:48;;;;;;;14.80;10.45;;;1.10;83.30;;;-0.93;82.32;95498.69;5056860;28;20055;-71
2021/01/26 00:39:13;;;;;;;16.08;11.02;;;1.10;83.30;;;-0.92;82.19;95501.16;5048793;28;20056;-70
2021/01/26 00:41:39;;;;;;;15.63;10.80;;;1.20;83.40;;;-0.93;82.28;95503.88;5059519;28;20098;-70
2021/01/26 00:44:05;;;;;;;15.98;11.05;;;1.10;83.40;;;-0.93;82.31;95502.09;5067346;28;20384;-71
2021/01/26 00:46:31;;;;;;;17.17;11.10;;;1.20;83.40;;;-0.89;82.79;95505.25;5050175;28;20025;-71
2021/01/26 00:48:56;;;;;;;17.73;11.35;;;1.10;83.40;;;-0.90;82.42;95497.66;5067220;28;20029;-71
2021/01/26 00:51:22;;;;;;;15.63;10.63;;;1.10;83.30;;;-0.89;82.43;95513.00;5050514;28;20040;-71
2021/01/26 00:53:48;;;;;;;17.67;11.40;;;1.10;83.50;;;-0.89;82.78;95514.78;5030935;28;20484;-72
2021/01/26 00:56:13;;;;;;;17.17;10.60;;;1.20;83.50;;;-0.92;82.78;95514.06;5048558;28;20040;-71
2021/01/26 00:58:39;;;;;;;19.15;11.45;;;1.10;83.60;;;-0.88;82.91;95517.22;5066521;28;20725;-71
2021/01/26 01:01:05;;;;;;;15.52;10.55;;;1.20;83.40;;;-0.87;82.78;95518.03;5066557;28;20512;-72
2021/01/26 01:03:31;;;;;;;17.55;11.32;;;1.10;83.50;;;-0.88;82.75;95518.97;5060406;28;20051;-68
2021/01/26 01:05:57;;;;;;;14.98;10.35;;;1.00;83.60;;;-0.91;82.54;95517.44;5051163;28;20043;-71
2021/01/26 01:08:23;;;;;;;15.77;10.52;;;1.00;83.70;;;-0.96;82.59;95515.28;5065340;28;20536;-71
2021/01/26 01:10:50;;;;;;;14.80;9.95;;;1.00;83.80;;;-0.92;82.76;95528.72;5032932;28;20040;-72
2021/01/26 01:13:15;;;;;;;14.20;9.95;;;1.00;83.80;;;-0.92;82.77;95531.31;5050288;28;20039;-70
2021/01/26 01:15:41;;;;;;;14.05;9.45;;;1.00;83.80;;;-0.93;82.62;95540.00;5061461;28;20124;-72
2021/01/26 01:18:07;;;;;;;15.82;10.15;;;1.00;83.70;;;-0.92;82.64;95541.63;5063397;28;20123;-71
2021/01/26 01:20:33;;;;;;;13.93;9.50;;;1.10;83.50;;;-0.90;82.45;95544.13;5046769;28;20031;-71
2021/01/26 01:22:58;;;;;;;14.38;9.63;;;1.10;83.30;;;-0.89;82.69;95548.31;5062285;28;20043;-71
2021/01/26 01:25:24;;;;;;;15.60;10.13;;;1.10;83.10;;;-0.89;82.79;95559.47;5034679;28;20435;-71
2021/01/26 01:27:50;;;;;;;14.93;9.38;;;1.10;83.20;;;-0.88;82.54;95560.28;5056308;28;20485;-70
2021/01/26 01:30:20;;;;;;;16.92;10.13;;;1.00;83.20;;;-0.91;82.78;95558.75;5046967;28;20033;-70
2021/01/26 01:32:45;;;;;;;14.82;9.32;;;1.00;83.40;;;-0.92;82.86;95562.28;5053343;28;20028;-70
2021/01/26 01:35:12;;;;;;;19.45;11.45;;;0.90;83.60;;;-0.94;82.49;95571.94;5049174;28;20412;-71
2021/01/26 01:37:37;;;;;;;14.85;10.15;;;0.90;83.90;;;-0.93;82.56;95565.81;5024185;28;20136;-70
2021/01/26 01:40:05;;;;;;;15.85;10.75;;;0.90;84.00;;;-0.93;82.75;95569.22;5040042;28;20051;-70
2021/01/26 01:42:31;;;;;;;13.95;9.57;;;0.90;83.90;;;-0.94;82.48;95564.19;5039798;28;20095;-70
2021/01/26 01:44:57;;;;;;;16.33;10.20;;;0.90;83.60;;;-0.94;82.60;95575.31;5048925;28;20057;-70
2021/01/26 01:47:32;;;;;;;14.85;10.18;;;1.00;83.70;;;-0.94;83.21;95572.75;5037254;28;20052;-71
2021/01/26 01:49:59;;;;;;;14.73;10.02;;;1.00;83.40;;;-0.93;82.81;95570.97;5030963;28;20071;-71
2021/01/26 01:52:28;;;;;;;17.10;10.65;;;0.90;83.60;;;-0.93;83.00;95574.38;5018002;28;20044;-71
2021/01/26 01:55:02;;;;;;;14.25;10.18;;;1.00;83.40;;;-0.93;82.94;95576.97;5039624;28;20041;-71
2021/01/26 01:57:41;;;;;;;15.68;10.45;;;1.00;83.30;;;-0.96;83.75;95591.91;5045755;28;20056;-71
2021/01/26 02:00:10;;;;;;;15.88;10.52;;;1.00;83.30;;;-0.91;82.70;95582.00;5016780;28;20047;-71
2021/01/26 02:02:42;;;;;;;14.40;10.05;;;1.10;83.10;;;-0.88;82.72;95584.34;5042081;28;20037;-72
2021/01/26 02:05:09;;;;;;;16.92;10.98;;;1.10;82.90;;;-0.86;82.58;95586.78;5033130;28;20033;-72
2021/01/26 02:07:34;;;;;;;16.63;10.80;;;1.10;82.70;;;-0.88;82.26;95586.91;5039133;28;20040;-72
2021/01/26 02:10:00;;;;;;;17.02;11.38;;;1.20;82.60;;;-0.85;82.61;95599.56;5039113;28;20036;-72
2021/01/26 02:12:26;;;;;;;17.02;11.55;;;1.20;82.50;;;-0.86;82.37;95595.34;5028807;28;20540;-70
2021/01/26 02:14:54;;;;;;;18.77;11.57;;;1.20;82.60;;;-0.83;82.47;95602.81;5040286;28;20395;-70
2021/01/26 02:17:40;;;;;;;17.00;11.68;;;1.20;82.30;;;-0.86;83.09;95603.09;5028814;28;20119;-69
2021/01/26 02:20:54;;;;;;;16.98;11.40;;;1.20;82.30;;;-0.81;83.79;95620.75;5026028;28;20043;-70
2021/01/26 02:23:50;;;;;;;17.38;12.15;;;1.30;82.20;;;-0.81;83.69;95613.84;5046335;28;20037;-69
2021/01/26 02:27:03;;;;;;;20.95;11.88;;;1.30;82.10;;;-0.81;83.62;95616.41;5052573;28;20491;-69
2021/01/26 02:30:22;;;;;;;17.63;11.50;;;1.20;82.30;;;-0.78;83.45;95612.75;5062043;28;20072;-70
2021/01/26 02:33:54;;;;;;;16.67;11.30;;;1.30;81.80;;;-0.80;83.10;95622.41;5056567;28;20431;-71
2021/01/26 02:37:03;;;;;;;18.85;12.23;;;1.10;81.70;;;-0.84;82.59;95624.44;4995842;28;20046;-70
2021/01/26 02:39:57;;;;;;;20.25;12.18;;;1.10;81.60;;;-0.87;82.62;95622.09;5030467;28;20481;-70
2021/01/26 02:43:03;;;;;;;18.00;12.23;;;1.00;81.40;;;-0.89;82.64;95636.91;5038583;28;20531;-70
2021/01/26 02:45:42;;;;;;;17.40;12.02;;;1.00;81.40;;;-0.88;82.25;95635.16;5043962;28;20029;-70
2021/01/26 02:48:49;;;;;;;17.35;11.63;;;1.10;81.50;;;-0.91;82.55;95636.19;5042840;28;20037;-70
2021/01/26 02:51:34;;;;;;;19.00;11.60;;;1.00;81.50;;;-0.91;83.03;95631.03;5032731;28;20031;-71
2021/01/26 02:54:06;;;;;;;16.65;11.60;;;1.10;81.40;;;-0.90;82.10;95643.03;5045877;28;20071;-70
2021/01/26 02:56:57;;;;;;;18.58;12.45;;;1.10;81.80;;;-0.90;83.18;95648.19;5041194;28;20124;-71
2021/01/26 02:59:49;;;;;;;17.55;11.68;;;1.20;81.80;;;-0.91;82.71;95646.53;5052526;28;20045;-69
2021/01/26 03:02:55;;;;;;;15.07;10.60;;;1.10;81.50;;;-0.90;82.51;95652.53;5040961;28;20029;-71
2021/01/26 03:05:30;;;;;;;17.38;11.38;;;1.10;81.10;;;-0.89;82.25;95662.72;5046190;28;20112;-69
2021/01/26 03:08:02;;;;;;;18.30;12.18;;;1.10;81.30;;;-0.89;82.19;95656.75;5001850;28;20040;-70
2021/01/26 03:10:42;;;;;;;18.75;12.18;;;1.10;81.60;;;-0.88;83.09;95666.94;5013905;28;20056;-69
2021/01/26 03:13:09;;;;;;;16.70;11.52;;;1.10;81.70;;;-0.89;81.92;95665.31;5022403;28;20033;-69
2021/01/26 03:15:55;;;;;;;17.27;11.75;;;1.10;81.70;;;-0.89;83.40;95675.66;5030612;28;20142;-69
2021/01/26 03:18:22;;;;;;;16.75;10.98;;;1.10;81.90;;;-0.92;81.83;95676.69;5043603;28;20033;-71
2021/01/26 03:20:54;;;;;;;15.20;10.52;;;1.10;82.10;;;-0.92;81.99;95676.69;5033416;28;20166;-72
2021/01/26 03:23:33;;;;;;;13.23;9.98;;;1.10;81.60;;;-0.90;81.70;95680.94;5017217;28;20040;-72
2021/01/26 03:25:58;;;;;;;14.77;10.60;;;1.00;81.30;;;-0.92;81.73;95691.38;5001087;28;20049;-70
2021/01/26 03:28:26;;;;;;;14.13;10.10;;;1.00;80.90;;;-0.93;81.53;95692.31;5022993;28;20029;-69
2021/01/26 03:30:53;;;;;;;14.55;9.77;;;1.00;80.70;;;-0.94;81.42;95701.00;5014566;28;20037;-71
2021/01/26 03:33:22;;;;;;;14.60;9.85;;;0.90;80.50;;;-0.98;81.13;95697.88;5018881;28;20500;-70
2021/01/26 03:35:47;;;;;;;14.32;9.95;;;0.90;80.50;;;-1.01;81.24;95699.88;5022802;28;20041;-70
2021/01/26 03:38:21;;;;;;;13.35;9.15;;;0.80;80.80;;;-1.05;80.92;95698.50;5064018;28;20063;-71
2021/01/26 03:40:49;;;;;;;16.63;10.48;;;0.70;80.50;;;-1.06;81.09;95708.03;5030320;28;20033;-70
2021/01/26 03:43:14;;;;;;;12.88;9.18;;;0.70;80.40;;;-1.07;80.73;95702.97;5037140;28;20089;-70
2021/01/26 03:45:41;;;;;;;15.27;9.18;;;0.70;80.40;;;-1.09;80.85;95699.72;5064547;28;20037;-71
2021/01/26 03:48:28;;;;;;;13.73;9.57;;;0.70;79.70;;;-1.15;80.64;95710.53;5037707;28;20037;-70
2021/01/26 03:51:25;;;;;;;14.52;10.02;;;0.60;79.60;;;-1.19;80.66;95712.53;5019074;28;20040;-70
2021/01/26 03:54:34;;;;;;;12.90;8.55;;;0.60;79.40;;;-1.24;79.94;95718.09;4997025;28;20127;-70
2021/01/26 03:57:56;;;;;;;12.95;8.55;;;0.50;78.80;;;-1.29;79.19;95725.41;5026138;28;20041;-71
2021/01/26 04:00:42;;;;;;;11.23;7.18;;;0.50;78.50;;;-1.35;78.82;95717.34;5029314;28;20033;-70
2021/01/26 04:03:26;;;;;;;11.30;7.18;;;0.40;76.50;;;-1.41;77.03;95716.06;5041124;28;20415;-71
2021/01/26 04:06:14;;;;;;;9.45;6.07;;;0.30;75.10;;;-1.48;76.89;95720.09;5044417;28;20037;-70
2021/01/26 04:08:49;;;;;;;10.45;6.20;;;0.20;74.20;;;-1.57;77.35;95720.84;5068345;28;20040;-70
2021/01/26 04:11:45;;;;;;;12.00;7.43;;;0.10;74.10;;;-1.60;76.52;95731.38;5026233;28;20082;-71
2021/01/26 04:14:32;;;;;;;10.38;5.90;;;0.10;74.60;;;-1.67;76.22;95731.06;5040739;28;20031;-70
2021/01/26 04:17:06;;;;;;;11.40;6.72;;;0.10;74.20;;;-1.66;77.07;95737.03;5046509;28;20638;-71
2021/01/26 04:19:54;;;;;;;13.48;6.43;;;0.10;74.60;;;-1.69;76.35;95734.72;5067098;28;20085;-70
2021/01/26 04:22:19;;;;;;;15.60;6.97;;;0.10;74.20;;;-1.73;77.59;95738.50;5020837;28;20405;-70
2021/01/26 04:24:45;;;;;;;9.50;6.03;;;0.10;74.70;;;-1.76;77.45;95731.00;5021011;28;20036;-70
2021/01/26 04:27:14;;;;;;;9.02;6.25;;;0.10;74.80;;;-1.78;77.33;95738.03;5065736;28;20040;-70
2021/01/26 04:29:40;;;;;;;10.82;6.85;;;0.10;75.40;;;-1.80;78.07;95737.34;5036927;28;20040;-70
2021/01/26 04:32:06;;;;;;;12.20;7.65;;;0.10;75.70;;;-1.83;78.10;95740.16;5049893;28;20029;-70
2021/01/26 04:34:32;;;;;;;11.13;7.15;;;0.10;76.00;;;-1.85;78.16;95738.50;5053529;28;20607;-71
2021/01/26 04:36:57;;;;;;;11.73;7.35;;;0.10;76.20;;;-1.87;78.05;95742.97;5051629;28;20196;-71
2021/01/26 04:39:23;;;;;;;10.25;7.25;;;0.10;76.40;;;-1.86;78.26;95739.44;5049441;28;20037;-72
2021/01/26 04:41:54;;;;;;;11.35;7.80;;;0.10;76.70;;;-1.85;78.23;95735.94;5066809;28;20066;-71
2021/01/26 04:44:36;;;;;;;16.98;8.75;;;0.10;76.80;;;-1.85;78.47;95741.09;5059047;28;20095;-71
2021/01/26 04:47:28;;;;;;;13.80;8.70;;;0.20;77.30;;;-1.87;78.96;95737.81;5038192;28;20033;-71
2021/01/26 04:50:08;;;;;;;14.50;9.50;;;0.10;77.80;;;-1.88;79.26;95733.59;5034821;28;20033;-71
2021/01/26 04:53:14;;;;;;;16.92;10.35;;;0.10;78.60;;;-1.90;80.47;95735.47;5067203;28;20412;-70
2021/01/26 04:55:55;;;;;;;18.13;10.43;;;0.10;79.20;;;-1.92;80.09;95729.63;5047614;28;20033;-67
2021/01/26 04:58:46;;;;;;;18.48;10.57;;;0.10;79.70;;;-1.93;80.24;95735.72;5056787;28;20532;-67
2021/01/26 05:01:30;;;;;;;19.75;11.90;;;0.00;80.00;;;-1.92;80.20;95742.53;5037799;28;20131;-68
2021/01/26 05:04:06;;;;;;;18.23;11.50;;;0.10;79.90;;;-1.93;80.08;95747.81;5063460;28;20048;-71
2021/01/26 05:06:39;;;;;;;19.98;12.35;;;0.10;80.20;;;-1.92;80.33;95747.69;5038268;28;20073;-72
2021/01/26 05:09:11;;;;;;;21.60;12.82;;;0.10;80.20;;;-1.94;80.13;95749.56;5042611;28;20036;-73
2021/01/26 05:11:37;;;;;;;22.55;13.07;;;0.10;80.30;;;-1.94;79.79;95749.56;5031154;28;20037;-72
2021/01/26 05:14:17;;;;;;;22.45;12.57;;;0.10;80.60;;;-1.96;80.37;95743.72;5049632;28;20123;-73
2021/01/26 05:16:56;;;;;;;18.38;11.55;;;0.10;80.60;;;-1.94;81.19;95754.72;5035400;28;20033;-72
2021/01/26 05:19:52;;;;;;;18.98;11.90;;;0.00;80.70;;;-1.93;81.07;95753.78;5051149;28;20041;-72
2021/01/26 05:22:53;;;;;;;19.08;11.98;;;0.10;80.70;;;-1.94;81.49;95749.56;5044509;28;20095;-73
2021/01/26 05:25:21;;;;;;;20.92;12.10;;;0.10;80.80;;;-1.91;80.26;95759.63;5050039;28;20495;-72
2021/01/26 05:27:48;;;;;;;19.85;11.70;;;0.10;80.40;;;-1.91;80.02;95756.22;5055687;28;20609;-74
2021/01/26 05:30:29;;;;;;;17.88;10.85;;;0.10;80.20;;;-1.91;80.06;95762.19;5044379;28;20044;-72
2021/01/26 05:32:57;;;;;;;17.90;10.70;;;0.10;80.00;;;-1.93;79.98;95751.19;5032962;28;20032;-71
2021/01/26 05:35:23;;;;;;;16.45;10.32;;;0.00;80.20;;;-1.92;79.67;95757.97;5047451;28;20514;-73
2021/01/26 05:37:50;;;;;;;18.00;10.93;;;0.00;80.00;;;-1.95;79.70;95763.38;5033741;28;20044;-73
2021/01/26 05:40:26;;;;;;;15.82;9.85;;;0.00;79.70;;;-1.94;80.06;95762.44;5016133;28;20691;-73
2021/01/26 05:42:59;;;;;;;15.65;9.98;;;0.00;79.70;;;-1.94;79.84;95770.19;5044862;28;20109;-73
2021/01/26 05:45:45;;;;;;;15.50;9.68;;;0.00;79.50;;;-1.92;80.06;95768.28;5047157;28;20032;-73
2021/01/26 05:48:16;;;;;;;14.55;9.48;;;0.00;79.40;;;-1.92;79.54;95768.28;5018051;28;20479;-73
2021/01/26 05:50:43;;;;;;;15.30;9.02;;;0.00;79.10;;;-1.93;79.35;95768.41;5047090;28;20128;-72
2021/01/26 05:53:23;;;;;;;14.55;9.45;;;0.00;78.70;;;-1.91;79.49;95759.63;5016853;28;20036;-73
2021/01/26 05:56:07;;;;;;;15.93;8.98;;;0.00;78.90;;;-1.91;79.50;95769.94;5066552;28;20079;-73
2021/01/26 05:58:33;;;;;;;15.35;9.30;;;0.00;78.40;;;-1.91;79.17;95767.34;5036115;28;20169;-72
2021/01/26 06:01:01;;;;;;;13.50;8.50;;;0.00;78.20;;;-1.90;79.02;95771.56;5066688;28;20119;-72
2021/01/26 06:03:27;;;;;;;14.80;8.23;;;0.10;78.30;;;-1.90;79.21;95770.75;5066785;28;20048;-71
2021/01/26 06:06:05;;;;;;;13.30;8.57;;;0.00;78.20;;;-1.91;78.96;95775.09;5051085;28;20028;-69
2021/01/26 06:08:33;;;;;;;15.07;9.45;;;0.10;77.90;;;-1.90;79.17;95771.56;5061537;28;20037;-68
2021/01/26 06:10:59;;;;;;;14.38;8.40;;;0.00;78.20;;;-1.90;78.96;95770.75;5039493;28;20037;-68
2021/01/26 06:13:29;;;;;;;13.20;8.48;;;0.00;77.80;;;-1.95;79.04;95763.38;5045604;28;20059;-70
2021/01/26 06:16:20;;;;;;;13.18;8.13;;;0.00;77.80;;;-1.95;78.98;95773.69;5038852;28;20036;-69
2021/01/26 06:18:59;;;;;;;14.70;8.10;;;0.00;78.00;;;-1.93;78.56;95784.69;5062514;28;20063;-69
2021/01/26 06:21:25;;;;;;;13.90;8.65;;;0.00;77.70;;;-1.93;79.03;95781.31;5056514;28;20115;-67
2021/01/26 06:23:51;;;;;;;12.90;8.38;;;0.00;77.70;;;-1.95;78.76;95789.16;5059128;28;20543;-66
2021/01/26 06:26:17;;;;;;;14.07;7.80;;;0.00;77.70;;;-1.94;78.48;95785.63;5064262;28;20045;-69
2021/01/26 06:29:21;;;;;;;12.38;8.30;;;0.00;77.70;;;-1.94;79.15;95785.63;5056714;28;20040;-70
2021/01/26 06:32:08;;;;;;;34.22;16.58;;;0.00;77.80;;;-1.93;78.75;95789.84;5056801;28;20579;-64
2021/01/26 06:34:42;;;;;;;14.15;8.88;;;0.00;77.40;;;-1.92;78.71;95786.34;5045955;28;20049;-65
2021/01/26 06:37:40;;;;;;;17.38;9.75;;;0.00;77.80;;;-1.90;78.39;95805.06;5065698;28;20543;-67
2021/01/26 06:40:16;;;;;;;13.88;8.02;;;0.00;77.30;;;-1.91;78.43;95782.81;5071518;28;20043;-68
2021/01/26 06:43:18;;;;;;;13.55;8.40;;;0.00;77.20;;;-1.91;78.58;95795.72;5046254;28;20175;-67
2021/01/26 06:46:07;;;;;;;13.45;7.97;;;0.00;77.40;;;-1.91;78.69;95798.28;5053151;28;20028;-66
2021/01/26 06:49:01;;;;;;;11.80;7.18;;;0.00;77.90;;;-1.92;78.35;95804.38;5070193;28;20062;-67
2021/01/26 06:51:36;;;;;;;12.63;7.70;;;0.00;77.40;;;-1.91;78.10;95800.84;5061008;28;20551;-67
2021/01/26 06:54:45;;;;;;;12.07;7.60;;;0.10;77.30;;;-1.88;78.64;95785.16;5085174;28;20130;-67
2021/01/26 06:57:30;;;;;;;11.43;7.45;;;0.00;77.60;;;-1.90;79.02;95797.34;5038535;28;20037;-67
2021/01/26 07:00:26;;;;;;;13.70;7.47;;;0.00;78.20;;;-1.93;79.07;95796.78;5058795;28;21719;-66
2021/01/26 07:03:42;;;;;;;12.15;7.72;;;0.00;79.30;;;-1.96;79.09;95792.69;5050611;28;20475;-67
2021/01/26 07:06:37;;;;;;;12.82;7.90;;;0.00;78.40;;;-1.97;78.88;95788.47;5046122;28;20045;-67
2021/01/26 07:09:40;;;;;;;13.10;7.80;;;0.00;78.20;;;-1.95;78.95;95788.34;5068227;28;20667;-67
2021/01/26 07:12:50;;;;;;;13.40;7.85;;;0.00;77.70;;;-1.93;78.87;95782.13;5067944;28;20070;-67
2021/01/26 07:15:57;;;;;;;16.60;9.07;;;0.00;77.80;;;-1.93;77.89;95776.16;5049690;28;20535;-65
2021/01/26 07:18:59;;;;;;;11.77;7.20;;;0.00;77.10;;;-1.92;77.58;95778.59;5061563;28;20040;-65
2021/01/26 07:21:58;;;;;;;11.27;6.38;;;0.00;76.20;;;-1.92;77.50;95788.91;5057104;28;20090;-65
2021/01/26 07:24:50;;;;;;;10.50;6.70;;;0.00;76.00;;;-1.95;77.40;95773.69;5069048;28;20033;-65
2021/01/26 07:28:03;;;;;;;9.80;5.70;;;0.00;75.80;;;-1.89;77.46;95786.09;5040827;28;20491;-65
2021/01/26 07:30:32;;;;;;;9.93;5.90;;;0.00;75.50;;;-1.90;77.18;95787.03;5088181;28;20123;-63
2021/01/26 07:33:03;;;;;;;11.23;5.90;;;0.00;75.40;;;-1.88;77.45;95798.03;5039687;28;20071;-66
2021/01/26 07:35:35;;;;;;;11.18;6.20;;;0.00;75.10;;;-1.86;76.69;95801.31;5048298;28;20033;-67
2021/01/26 07:38:40;;;;;;;11.07;6.85;;;0.00;75.30;;;-1.86;77.29;95806.47;5034045;28;20053;-67
2021/01/26 07:41:36;;;;;;;10.70;6.60;;;0.00;75.80;;;-1.86;77.17;95806.47;5069694;28;20028;-67
2021/01/26 07:44:29;;;;;;;11.27;6.30;;;0.00;76.50;;;-1.89;77.94;95806.72;5031462;28;20131;-67
2021/01/26 07:47:16;;;;;;;11.63;6.93;;;0.00;78.00;;;-1.90;78.49;95817.97;5048292;28;20036;-67
2021/01/26 07:50:04;;;;;;;9.38;5.93;;;0.00;78.90;;;-1.93;79.82;95813.06;5052684;28;20032;-67
2021/01/26 07:52:30;;;;;;;16.50;8.10;;;-3276.70;79.90;;;-1.95;78.66;95814.94;5053224;28;20656;-67
2021/01/26 07:55:30;;;;;;;13.63;8.30;;;0.00;81.00;;;-1.95;80.11;95814.94;5042801;28;20070;-66
2021/01/26 07:58:01;;;;;;;11.25;7.03;;;0.00;80.80;;;-1.96;79.21;95818.44;5073856;28;20043;-66
2021/01/26 08:00:29;;;;;;;14.80;8.10;;;0.00;80.90;;;-2.00;79.47;95818.81;5037606;28;20043;-66
2021/01/26 08:02:57;;;;;;;14.15;8.07;;;-3276.70;81.20;;;-2.02;79.69;95823.28;5032813;28;20044;-67
2021/01/26 08:05:46;;;;;;;12.98;8.38;;;-3276.60;81.10;;;-2.05;81.19;95823.47;5040294;28;20120;-67
2021/01/26 08:08:28;;;;;;;9.93;5.97;;;-3276.60;81.30;;;-2.09;80.40;95825.47;5065629;28;20405;-65
2021/01/26 08:11:20;;;;;;;8.73;5.50;;;-3276.50;81.30;;;-2.09;80.45;95833.22;5053658;28;20028;-64
2021/01/26 08:13:53;;;;;;;9.48;5.95;;;-3276.70;80.80;;;-2.08;80.18;95821.97;5070162;28;20148;-68
2021/01/26 08:16:34;;;;;;;10.27;5.82;;;-3276.60;80.60;;;-2.07;80.70;95831.34;5067506;28;20071;-67
2021/01/26 08:19:03;;;;;;;9.10;5.68;;;-3276.70;80.20;;;-2.05;79.81;95839.75;5059783;28;20040;-67
2021/01/26 08:21:43;;;;;;;10.50;5.93;;;-3276.70;80.10;;;-2.02;80.53;95834.41;5043024;28;20128;-66
2021/01/26 08:24:20;;;;;;;10.57;6.15;;;0.00;79.80;;;-2.01;79.91;95833.47;5046297;28;20033;-67
2021/01/26 08:26:46;;;;;;;9.77;5.38;;;0.00;79.60;;;-2.01;79.24;95830.88;5070779;28;20032;-68
2021/01/26 08:29:38;;;;;;;12.88;6.13;;;-3276.70;79.60;;;-1.99;80.42;95834.16;5071124;28;20033;-67
2021/01/26 08:32:22;;;;;;;10.93;6.13;;;0.00;79.60;;;-1.95;80.25;95834.72;5072026;28;20127;-68
2021/01/26 08:35:06;;;;;;;10.88;6.40;;;0.00;79.50;;;-1.93;79.61;95835.44;5067882;28;20052;-63
2021/01/26 08:37:43;;;;;;;12.30;5.35;;;0.00;78.70;;;-1.91;79.97;95825.81;5068068;28;20036;-64
2021/01/26 08:40:10;;;;;;;10.25;5.43;;;0.10;79.30;;;-1.88;79.34;95826.41;5051042;28;20054;-67
2021/01/26 08:42:41;;;;;;;8.88;4.80;;;0.10;81.80;;;-1.82;79.75;95832.00;5069275;28;20510;-67
2021/01/26 08:45:27;;;;;;;7.38;5.18;;;0.10;78.80;;;-1.81;79.56;95831.91;5078595;28;20043;-66
2021/01/26 08:48:00;;;;;;;7.43;4.47;;;0.10;78.20;;;-1.79;79.46;95830.03;5056278;28;20119;-67
2021/01/26 08:51:03;;;;;;;11.90;7.28;;;0.10;78.30;;;-1.75;79.87;95831.44;5065187;28;20043;-68
2021/01/26 08:53:28;;;;;;;15.98;7.82;;;0.20;79.00;;;-1.71;79.22;95834.56;5079017;28;20132;-68
2021/01/26 08:55:55;;;;;;;11.05;4.28;;;0.20;78.60;;;-1.67;79.45;95851.44;5084035;28;20115;-68
2021/01/26 08:58:42;;;;;;;8.32;4.47;;;0.30;77.90;;;-1.65;79.39;95845.22;5073007;28;20039;-63
2021/01/26 09:01:24;;;;;;;8.93;4.00;;;0.20;78.00;;;-1.62;79.45;95837.25;5059739;28;20039;-68
2021/01/26 09:03:51;;;;;;;6.60;4.28;;;0.20;78.50;;;-1.63;79.23;95838.19;5071343;28;20124;-69
2021/01/26 09:06:38;;;;;;;8.93;5.18;;;0.20;78.60;;;-1.59;79.49;95833.59;5059987;28;20108;-70
2021/01/26 09:09:05;;;;;;;8.27;4.72;;;0.30;78.40;;;-1.59;78.99;95838.75;5048900;28;20524;-70
2021/01/26 09:11:45;;;;;;;7.65;3.92;;;0.20;78.10;;;-1.58;78.73;95832.69;5039574;28;20040;-69
2021/01/26 09:14:19;;;;;;;7.78;4.18;;;0.20;77.60;;;-1.55;78.94;95853.88;5064658;28;20040;-69
2021/01/26 09:16:45;;;;;;;10.27;5.35;;;0.40;77.40;;;-1.52;78.68;95837.34;5080000;28;20099;-70
2021/01/26 09:19:54;;;;;;;8.40;4.38;;;0.30;77.10;;;-1.48;78.36;95843.91;5014780;28;20032;-69
2021/01/26 09:22:28;;;;;;;7.55;4.00;;;0.30;76.40;;;-1.46;78.01;95852.34;4916287;29;20042;-64
2021/01/26 09:25:20;;;;;;;7.75;4.00;;;0.30;76.30;;;-1.43;78.22;95841.78;4942555;28;20034;-67
2021/01/26 09:28:01;;;;;;;6.22;3.70;;;0.40;76.00;;;-1.41;77.69;95857.94;5034189;28;20037;-67
2021/01/26 09:30:28;;;;;;;8.27;3.83;;;0.50;75.90;;;-1.37;78.28;95861.91;5067024;28;20064;-67
2021/01/26 09:32:54;;;;;;;6.57;3.53;;;0.50;75.80;;;-1.33;78.38;95860.75;5066929;28;20162;-68
2021/01/26 09:35:42;;;;;;;9.15;5.25;;;0.60;75.80;;;-1.30;78.02;95855.34;5066646;28;20168;-69
2021/01/26 09:38:08;;;;;;;8.63;4.43;;;0.70;75.70;;;-1.20;78.05;95883.78;5067029;28;20033;-69
2021/01/26 09:40:35;;;;;;;7.82;4.97;;;0.70;75.80;;;-1.16;77.96;95879.22;5059742;28;20045;-70
2021/01/26 09:43:22;;;;;;;7.72;4.63;;;0.70;76.50;;;-1.14;77.75;95877.31;5068392;28;20036;-69
2021/01/26 09:46:03;;;;;;;9.32;4.15;;;0.80;76.10;;;-1.10;77.87;95881.31;5054513;28;20540;-70
2021/01/26 09:48:41;;;;;;;6.07;3.75;;;0.70;76.40;;;-1.09;77.80;95891.53;5065441;28;20043;-70
2021/01/26 09:51:21;;;;;;;9.13;5.22;;;0.80;76.00;;;-1.08;78.05;95882.84;5044075;28;20127;-68
2021/01/26 09:53:49;;;;;;;9.82;5.25;;;0.80;75.80;;;-1.07;78.14;95883.66;5068523;28;20036;-68
2021/01/26 09:56:20;;;;;;;8.93;4.53;;;0.70;75.80;;;-1.07;77.86;95881.06;5060178;28;20551;-69
2021/01/26 09:58:46;;;;;;;14.15;5.28;;;0.70;76.00;;;-1.09;77.92;95888.13;5027271;28;20386;-70
2021/01/26 10:01:14;;;;;;;12.23;5.43;;;0.70;75.90;;;-1.08;77.53;95892.34;5029024;28;20047;-69
2021/01/26 10:03:39;;;;;;;8.65;4.93;;;0.70;75.80;;;-1.10;77.43;95883.91;5044579;28;20485;-69
2021/01/26 10:06:05;;;;;;;9.15;5.20;;;0.80;75.60;;;-1.10;77.26;95876.16;5029431;28;20075;-69
2021/01/26 10:08:33;;;;;;;11.85;4.82;;;0.70;74.90;;;-1.04;76.93;95878.25;5046039;28;20148;-68
2021/01/26 10:11:14;;;;;;;7.30;4.03;;;0.90;74.70;;;-0.99;76.77;95876.09;5059133;28;20087;-67
2021/01/26 10:13:40;;;;;;;12.43;4.47;;;1.00;73.50;;;-0.93;77.00;95878.19;5066324;28;20037;-69
2021/01/26 10:16:30;;;;;;;9.93;4.28;;;1.10;73.50;;;-0.84;75.83;95880.03;5040014;28;20063;-68
2021/01/26 10:18:57;;;;;;;11.50;5.15;;;1.10;73.20;;;-0.79;76.50;95879.66;5047895;28;20109;-67
2021/01/26 10:21:30;;;;;;;7.88;4.50;;;1.10;72.90;;;-0.74;76.26;95880.09;5028989;28;20033;-66
2021/01/26 10:24:30;;;;;;;10.98;4.88;;;1.10;73.00;;;-0.67;75.70;95896.75;5017488;28;20036;-64
2021/01/26 10:27:13;;;;;;;15.52;8.45;;;1.30;72.70;;;-0.54;75.65;95886.22;5046029;28;20470;-67
2021/01/26 10:29:40;;;;;;;9.82;4.72;;;1.70;71.80;;;-0.38;76.30;95891.78;5063729;28;20268;-67
2021/01/26 10:32:07;;;;;;;9.48;4.55;;;2.30;69.90;;;-0.13;75.76;95893.94;5065990;28;20051;-64
2021/01/26 10:34:36;;;;;;;10.15;6.22;;;2.40;68.20;;;-0.05;75.62;95899.28;5066862;28;20044;-68
2021/01/26 10:37:23;;;;;;;11.90;5.40;;;2.20;69.20;;;0.07;74.35;95904.38;5045535;28;20067;-69
2021/01/26 10:40:19;;;;;;;9.93;5.30;;;2.10;70.20;;;0.09;73.46;95905.91;5046899;28;20036;-70
2021/01/26 10:42:56;;;;;;;7.43;4.65;;;2.00;70.30;;;0.03;73.82;95895.25;5064998;28;20029;-63
2021/01/26 10:45:49;;;;;;;7.80;5.00;;;1.90;70.10;;;0.08;74.01;95911.19;5049152;28;20131;-69
2021/01/26 10:48:28;;;;;;;7.97;4.80;;;1.90;71.10;;;0.03;74.57;95895.25;5049223;28;20119;-67
2021/01/26 10:50:56;;;;;;;8.63;5.43;;;1.70;71.20;;;-0.02;74.70;95899.03;5033839;28;20029;-65
2021/01/26 10:53:43;;;;;;;11.07;5.40;;;1.70;71.10;;;-0.07;74.53;95906.34;5017698;28;20056;-67
2021/01/26 10:56:08;;;;;;;9.60;5.00;;;1.70;72.00;;;-0.07;74.94;95902.94;5060907;28;20084;-64
2021/01/26 10:58:34;;;;;;;9.95;5.28;;;1.60;71.50;;;-0.09;74.43;95917.78;5055832;28;20666;-67
2021/01/26 11:01:01;;;;;;;11.23;6.45;;;1.60;71.80;;;-0.09;74.56;95908.25;5048974;28;20033;-66